createdAt,value
2022-09-06T00:00:42.425Z,0
2022-09-06T00:01:48.570Z,0
2022-09-06T00:02:54.734Z,0
2022-09-06T00:04:00.860Z,0
2022-09-06T00:05:07.002Z,0
2022-09-06T00:06:13.152Z,0
2022-09-06T00:07:19.295Z,0
2022-09-06T00:08:25.443Z,0
2022-09-06T00:09:31.583Z,0
2022-09-06T00:10:37.736Z,0
2022-09-06T00:11:43.895Z,0
2022-09-06T00:12:50.036Z,0
2022-09-06T00:13:55.196Z,0
2022-09-06T00:15:01.344Z,0
2022-09-06T00:16:07.488Z,0
2022-09-06T00:17:13.643Z,0
2022-09-06T00:18:19.777Z,0
2022-09-06T00:19:25.923Z,0
2022-09-06T00:20:32.074Z,0
2022-09-06T00:21:38.219Z,0
2022-09-06T00:22:44.369Z,0
2022-09-06T00:23:50.504Z,0
2022-09-06T00:24:56.652Z,0
2022-09-06T00:26:02.806Z,0
2022-09-06T00:27:08.950Z,0
2022-09-06T00:28:14.123Z,0
2022-09-06T00:29:20.259Z,0
2022-09-06T00:30:26.406Z,0
2022-09-06T00:31:32.551Z,0
2022-09-06T00:32:38.693Z,0
2022-09-06T00:33:44.841Z,0
2022-09-06T00:34:50.982Z,0
2022-09-06T00:35:57.132Z,0
2022-09-06T00:37:03.281Z,0
2022-09-06T00:38:09.429Z,0
2022-09-06T00:39:15.575Z,0
2022-09-06T00:40:21.726Z,0
2022-09-06T00:41:27.888Z,0
2022-09-06T00:42:33.043Z,0
2022-09-06T00:43:39.196Z,0
2022-09-06T00:44:45.346Z,0
2022-09-06T00:45:51.508Z,0
2022-09-06T00:46:57.659Z,0
2022-09-06T00:48:03.816Z,0
2022-09-06T00:49:09.965Z,0
2022-09-06T00:50:16.134Z,0
2022-09-06T00:51:22.285Z,0
2022-09-06T00:52:28.434Z,0
2022-09-06T00:53:34.588Z,0
2022-09-06T00:54:40.746Z,0
2022-09-06T00:55:46.902Z,0
2022-09-06T00:56:52.071Z,0
2022-09-06T00:57:58.219Z,0
2022-09-06T00:59:04.375Z,0
2022-09-06T01:00:10.535Z,0
2022-09-06T01:01:16.692Z,0
2022-09-06T01:02:22.856Z,0
2022-09-06T01:03:29.000Z,0
2022-09-06T01:04:35.154Z,0
2022-09-06T01:05:41.307Z,0
2022-09-06T01:06:47.472Z,0
2022-09-06T01:07:53.629Z,0
2022-09-06T01:08:59.788Z,0
2022-09-06T01:10:05.943Z,0
2022-09-06T01:11:11.116Z,0
2022-09-06T01:12:17.276Z,0
2022-09-06T01:13:23.439Z,0
2022-09-06T01:14:29.589Z,0
2022-09-06T01:15:34.764Z,0
2022-09-06T01:16:40.920Z,0
2022-09-06T01:17:47.070Z,0
2022-09-06T01:18:53.232Z,0
2022-09-06T01:19:59.397Z,0
2022-09-06T01:21:05.543Z,0
2022-09-06T01:22:11.706Z,0
2022-09-06T01:23:17.866Z,0
2022-09-06T01:24:24.028Z,0
2022-09-06T01:25:30.189Z,0
2022-09-06T01:26:36.343Z,0
2022-09-06T01:27:42.496Z,0
2022-09-06T01:28:48.665Z,0
2022-09-06T01:29:53.839Z,0
2022-09-06T01:31:00.001Z,0
2022-09-06T01:32:06.165Z,0
2022-09-06T01:33:12.327Z,0
2022-09-06T01:34:18.495Z,0
2022-09-06T01:35:24.661Z,0
2022-09-06T01:36:30.839Z,0
2022-09-06T01:37:36.991Z,0
2022-09-06T01:38:43.158Z,0
2022-09-06T01:39:49.303Z,0
2022-09-06T01:40:55.469Z,0
2022-09-06T01:42:01.624Z,0
2022-09-06T01:43:07.796Z,0
2022-09-06T01:44:12.971Z,0
2022-09-06T01:45:19.146Z,0
2022-09-06T01:46:25.321Z,0
2022-09-06T01:47:31.485Z,0
2022-09-06T01:48:37.645Z,0
2022-09-06T01:49:43.801Z,0
2022-09-06T01:50:49.970Z,0
2022-09-06T01:51:56.133Z,0
2022-09-06T01:53:02.296Z,0
2022-09-06T01:54:08.456Z,0
2022-09-06T01:55:14.617Z,0
2022-09-06T01:56:20.798Z,0
2022-09-06T01:57:26.941Z,0
2022-09-06T01:58:32.119Z,0
2022-09-06T01:59:38.288Z,0
2022-09-06T02:00:44.461Z,0
2022-09-06T02:01:50.624Z,0
2022-09-06T02:02:56.771Z,0
2022-09-06T02:04:02.947Z,0
2022-09-06T02:05:09.109Z,0
2022-09-06T02:06:15.263Z,0
2022-09-06T02:07:21.432Z,0
2022-09-06T02:08:27.594Z,0
2022-09-06T02:09:33.760Z,0
2022-09-06T02:10:39.909Z,0
2022-09-06T02:11:46.069Z,0
2022-09-06T02:12:51.251Z,0
2022-09-06T02:13:57.412Z,0
2022-09-06T02:15:03.562Z,0
2022-09-06T02:16:09.739Z,0
2022-09-06T02:17:15.903Z,0
2022-09-06T02:18:22.105Z,0
2022-09-06T02:19:28.227Z,0
2022-09-06T02:20:34.394Z,0
2022-09-06T02:21:40.554Z,0
2022-09-06T02:22:46.720Z,0
2022-09-06T02:23:52.884Z,0
2022-09-06T02:24:59.045Z,0
2022-09-06T02:26:05.213Z,0
2022-09-06T02:27:10.383Z,0
2022-09-06T02:28:16.556Z,0
2022-09-06T02:29:22.719Z,0
2022-09-06T02:30:28.887Z,0
2022-09-06T02:31:35.046Z,0
2022-09-06T02:32:41.214Z,0
2022-09-06T02:33:47.382Z,0
2022-09-06T02:34:53.553Z,0
2022-09-06T02:35:59.703Z,0
2022-09-06T02:37:05.874Z,0
2022-09-06T02:38:12.040Z,0
2022-09-06T02:39:18.197Z,0
2022-09-06T02:40:24.358Z,0
2022-09-06T02:41:29.535Z,0
2022-09-06T02:42:35.698Z,0
2022-09-06T02:43:41.870Z,0
2022-09-06T02:44:48.029Z,0
2022-09-06T02:45:54.191Z,0
2022-09-06T02:47:00.357Z,0
2022-09-06T02:48:06.514Z,0
2022-09-06T02:49:12.681Z,0
2022-09-06T02:50:18.856Z,0
2022-09-06T02:51:25.012Z,0
2022-09-06T02:52:31.179Z,0
2022-09-06T02:53:37.358Z,0
2022-09-06T02:54:43.506Z,0
2022-09-06T02:55:48.686Z,0
2022-09-06T02:56:54.844Z,0
2022-09-06T02:58:01.008Z,0
2022-09-06T02:59:07.166Z,0
2022-09-06T03:00:13.337Z,0
2022-09-06T03:01:19.502Z,0
2022-09-06T03:02:25.670Z,0
2022-09-06T03:03:31.837Z,0
2022-09-06T03:04:37.997Z,0
2022-09-06T03:05:44.167Z,0
2022-09-06T03:06:50.334Z,0
2022-09-06T03:07:56.497Z,0
2022-09-06T03:09:02.664Z,0
2022-09-06T03:10:07.835Z,0
2022-09-06T03:11:14.018Z,0
2022-09-06T03:12:20.174Z,0
2022-09-06T03:13:26.335Z,0
2022-09-06T03:14:32.512Z,0
2022-09-06T03:15:38.687Z,0
2022-09-06T03:16:44.849Z,0
2022-09-06T03:17:51.031Z,0
2022-09-06T03:18:57.191Z,0
2022-09-06T03:20:03.369Z,0
2022-09-06T03:21:09.532Z,0
2022-09-06T03:22:15.703Z,0
2022-09-06T03:23:21.863Z,0
2022-09-06T03:24:28.042Z,0
2022-09-06T03:25:33.214Z,0
2022-09-06T03:26:39.378Z,0
2022-09-06T03:27:45.557Z,0
2022-09-06T03:28:51.730Z,0
2022-09-06T03:29:57.888Z,0
2022-09-06T03:31:04.058Z,0
2022-09-06T03:32:10.220Z,0
2022-09-06T03:33:16.385Z,0
2022-09-06T03:34:22.542Z,0
2022-09-06T03:35:28.707Z,0
2022-09-06T03:36:34.871Z,0
2022-09-06T03:37:41.048Z,0
2022-09-06T03:38:47.213Z,0
2022-09-06T03:39:52.403Z,0
2022-09-06T03:40:58.558Z,0
2022-09-06T03:42:04.727Z,0
2022-09-06T03:43:10.912Z,0
2022-09-06T03:44:17.070Z,0
2022-09-06T03:45:23.233Z,0
2022-09-06T03:46:29.414Z,0
2022-09-06T03:47:35.575Z,0
2022-09-06T03:48:41.756Z,0
2022-09-06T03:49:47.926Z,0
2022-09-06T03:50:54.098Z,0
2022-09-06T03:52:00.281Z,4
2022-09-06T03:53:06.461Z,0
2022-09-06T03:54:12.659Z,0
2022-09-06T03:55:17.825Z,0
2022-09-06T03:56:24.010Z,1
2022-09-06T03:57:30.173Z,0
2022-09-06T03:58:36.358Z,1
2022-09-06T03:59:42.522Z,1
2022-09-06T04:00:48.702Z,3
2022-09-06T04:01:54.875Z,3
2022-09-06T04:03:01.047Z,6
2022-09-06T04:04:07.222Z,6
2022-09-06T04:05:13.400Z,6
2022-09-06T04:06:19.574Z,9
2022-09-06T04:07:25.738Z,7
2022-09-06T04:08:31.905Z,11
2022-09-06T04:09:38.075Z,15
2022-09-06T04:10:44.261Z,17
2022-09-06T04:11:50.441Z,21
2022-09-06T04:12:56.607Z,28
2022-09-06T04:14:02.785Z,35
2022-09-06T04:15:08.962Z,42
2022-09-06T04:16:15.131Z,48
2022-09-06T04:17:21.313Z,56
2022-09-06T04:18:27.485Z,62
2022-09-06T04:19:33.645Z,68
2022-09-06T04:20:38.841Z,77
2022-09-06T04:21:45.010Z,87
2022-09-06T04:22:51.182Z,95
2022-09-06T04:23:57.352Z,109
2022-09-06T04:25:03.518Z,121
2022-09-06T04:26:09.684Z,134
2022-09-06T04:27:15.857Z,143
2022-09-06T04:28:22.024Z,150
2022-09-06T04:29:28.193Z,160
2022-09-06T04:30:34.363Z,168
2022-09-06T04:31:40.526Z,176
2022-09-06T04:32:46.703Z,177
2022-09-06T04:33:52.870Z,188
2022-09-06T04:34:58.064Z,200
2022-09-06T04:36:04.229Z,214
2022-09-06T04:37:10.401Z,232
2022-09-06T04:38:16.571Z,251
2022-09-06T04:39:22.739Z,272
2022-09-06T04:40:28.901Z,293
2022-09-06T04:41:35.082Z,321
2022-09-06T04:42:41.254Z,338
2022-09-06T04:43:47.418Z,365
2022-09-06T04:44:53.604Z,421
2022-09-06T04:45:59.770Z,449
2022-09-06T04:47:05.950Z,477
2022-09-06T04:48:12.129Z,485
2022-09-06T04:49:17.314Z,529
2022-09-06T04:50:23.496Z,590
2022-09-06T04:51:29.698Z,657
2022-09-06T04:52:35.856Z,735
2022-09-06T04:53:42.030Z,797
2022-09-06T04:54:48.207Z,895
2022-09-06T04:55:54.397Z,913
2022-09-06T04:56:59.612Z,1039
2022-09-06T04:58:05.763Z,1164
2022-09-06T04:59:11.946Z,1289
2022-09-06T05:00:18.120Z,1357
2022-09-06T05:01:24.302Z,1394
2022-09-06T05:02:30.468Z,1431
2022-09-06T05:03:36.655Z,1440
2022-09-06T05:04:42.830Z,1486
2022-09-06T05:05:49.001Z,1579
2022-09-06T05:06:55.196Z,1706
2022-09-06T05:08:01.366Z,1825
2022-09-06T05:09:07.525Z,1850
2022-09-06T05:10:13.696Z,1844
2022-09-06T05:11:18.908Z,1946
2022-09-06T05:12:25.067Z,2108
2022-09-06T05:13:31.230Z,2301
2022-09-06T05:14:37.406Z,2417
2022-09-06T05:15:43.576Z,2488
2022-09-06T05:16:49.754Z,2459
2022-09-06T05:17:55.923Z,2430
2022-09-06T05:19:02.078Z,2463
2022-09-06T05:20:08.277Z,2591
2022-09-06T05:21:14.435Z,2637
2022-09-06T05:22:20.597Z,2763
2022-09-06T05:23:26.765Z,2927
2022-09-06T05:24:32.927Z,3020
2022-09-06T05:25:38.123Z,3020
2022-09-06T05:26:44.292Z,3109
2022-09-06T05:27:50.475Z,3157
2022-09-06T05:28:56.642Z,3439
2022-09-06T05:30:02.818Z,3342
2022-09-06T05:31:09.050Z,3299
2022-09-06T05:32:15.168Z,3250
2022-09-06T05:33:21.346Z,3288
2022-09-06T05:34:27.512Z,3430
2022-09-06T05:35:33.685Z,3533
2022-09-06T05:36:39.860Z,3468
2022-09-06T05:37:46.025Z,3513
2022-09-06T05:38:52.195Z,3355
2022-09-06T05:39:57.371Z,3397
2022-09-06T05:41:03.572Z,3779
2022-09-06T05:42:09.711Z,3579
2022-09-06T05:43:15.877Z,3569
2022-09-06T05:44:22.041Z,3731
2022-09-06T05:45:28.201Z,3666
2022-09-06T05:46:34.371Z,3700
2022-09-06T05:47:40.551Z,3751
2022-09-06T05:48:46.715Z,3807
2022-09-06T05:49:52.886Z,3866
2022-09-06T05:50:59.055Z,3909
2022-09-06T05:52:05.235Z,3967
2022-09-06T05:53:11.391Z,4000
2022-09-06T05:54:16.568Z,4054
2022-09-06T05:55:22.735Z,4095
2022-09-06T05:56:28.902Z,4160
2022-09-06T05:57:35.070Z,4220
2022-09-06T05:58:41.234Z,4150
2022-09-06T05:59:47.395Z,4213
2022-09-06T06:00:53.560Z,4195
2022-09-06T06:01:59.731Z,4204
2022-09-06T06:03:05.920Z,4184
2022-09-06T06:04:12.064Z,4105
2022-09-06T06:05:18.243Z,4084
2022-09-06T06:06:24.395Z,4079
2022-09-06T06:07:30.558Z,4259
2022-09-06T06:08:35.737Z,4271
2022-09-06T06:09:41.911Z,4364
2022-09-06T06:10:48.074Z,4524
2022-09-06T06:11:54.240Z,4707
2022-09-06T06:13:00.418Z,4905
2022-09-06T06:14:06.581Z,5110
2022-09-06T06:15:12.749Z,5300
2022-09-06T06:16:18.912Z,5544
2022-09-06T06:17:25.081Z,5785
2022-09-06T06:18:31.254Z,6188
2022-09-06T06:19:37.427Z,6354
2022-09-06T06:20:43.591Z,6539
2022-09-06T06:21:49.763Z,6780
2022-09-06T06:22:54.956Z,7052
2022-09-06T06:24:01.115Z,7156
2022-09-06T06:25:07.275Z,7635
2022-09-06T06:26:13.433Z,8155
2022-09-06T06:27:19.610Z,8169
2022-09-06T06:28:25.768Z,8270
2022-09-06T06:29:31.920Z,8187
2022-09-06T06:30:38.092Z,8133
2022-09-06T06:31:44.230Z,8138
2022-09-06T06:32:50.389Z,8160
2022-09-06T06:33:56.559Z,8168
2022-09-06T06:35:02.719Z,8192
2022-09-06T06:36:08.883Z,8393
2022-09-06T06:37:14.091Z,8543
2022-09-06T06:38:20.252Z,8943
2022-09-06T06:39:26.384Z,8864
2022-09-06T06:40:32.546Z,8811
2022-09-06T06:41:38.712Z,8902
2022-09-06T06:42:44.873Z,8739
2022-09-06T06:43:51.031Z,8939
2022-09-06T06:44:57.197Z,9442
2022-09-06T06:46:03.352Z,9558
2022-09-06T06:47:09.505Z,9302
2022-09-06T06:48:15.666Z,8983
2022-09-06T06:49:21.830Z,8903
2022-09-06T06:50:28.002Z,8830
2022-09-06T06:51:33.176Z,8691
2022-09-06T06:52:39.319Z,8597
2022-09-06T06:53:45.504Z,8484
2022-09-06T06:54:51.636Z,8397
2022-09-06T06:55:57.780Z,8208
2022-09-06T06:57:03.939Z,8119
2022-09-06T06:58:10.085Z,8055
2022-09-06T06:59:16.234Z,8005
2022-09-06T07:00:22.403Z,7958
2022-09-06T07:01:28.554Z,7944
2022-09-06T07:02:34.699Z,7975
2022-09-06T07:03:40.851Z,8000
2022-09-06T07:04:47.049Z,8101
2022-09-06T07:05:53.159Z,8121
2022-09-06T07:06:59.317Z,8203
2022-09-06T07:08:05.465Z,8358
2022-09-06T07:09:11.628Z,8451
2022-09-06T07:10:17.785Z,8636
2022-09-06T07:11:23.932Z,8802
2022-09-06T07:12:29.107Z,9042
2022-09-06T07:13:35.260Z,9459
2022-09-06T07:14:41.416Z,9743
2022-09-06T07:15:47.563Z,10069
2022-09-06T07:16:53.718Z,10462
2022-09-06T07:17:59.866Z,10354
2022-09-06T07:19:06.017Z,10350
2022-09-06T07:20:12.183Z,10321
2022-09-06T07:21:18.322Z,10315
2022-09-06T07:22:24.480Z,10407
2022-09-06T07:23:30.628Z,10546
2022-09-06T07:24:36.765Z,10674
2022-09-06T07:25:42.906Z,11142
2022-09-06T07:26:48.077Z,11688
2022-09-06T07:27:54.228Z,12387
2022-09-06T07:29:00.374Z,12319
2022-09-06T07:30:06.519Z,12519
2022-09-06T07:31:12.659Z,13303
2022-09-06T07:32:18.811Z,13888
2022-09-06T07:33:24.959Z,15686
2022-09-06T07:34:31.093Z,14143
2022-09-06T07:35:37.235Z,11921
2022-09-06T07:36:43.379Z,21520
2022-09-06T07:37:49.506Z,21167
2022-09-06T07:38:55.657Z,18269
2022-09-06T07:40:01.782Z,16137
2022-09-06T07:41:06.933Z,18860
2022-09-06T07:42:13.065Z,21499
2022-09-06T07:43:19.199Z,20446
2022-09-06T07:44:25.334Z,19709
2022-09-06T07:45:31.462Z,21832
2022-09-06T07:46:37.588Z,17115
2022-09-06T07:47:43.717Z,25776
2022-09-06T07:48:49.843Z,28479
2022-09-06T07:49:55.975Z,22309
2022-09-06T07:51:02.097Z,18010
2022-09-06T07:52:08.221Z,18831
2022-09-06T07:53:14.342Z,15794
2022-09-06T07:54:20.470Z,15024
2022-09-06T07:55:26.585Z,14571
2022-09-06T07:56:32.694Z,13411
2022-09-06T07:57:38.826Z,15385
2022-09-06T07:58:43.956Z,13822
2022-09-06T07:59:50.091Z,13257
2022-09-06T08:00:56.202Z,12806
2022-09-06T08:02:02.333Z,12196
2022-09-06T08:03:08.455Z,11696
2022-09-06T08:04:14.588Z,11690
2022-09-06T08:05:20.699Z,11310
2022-09-06T08:06:26.814Z,11086
2022-09-06T08:07:32.931Z,10572
2022-09-06T08:08:39.127Z,10671
2022-09-06T08:09:45.200Z,10625
2022-09-06T08:10:51.311Z,10468
2022-09-06T08:11:57.434Z,10335
2022-09-06T08:13:03.558Z,10209
2022-09-06T08:14:09.688Z,10132
2022-09-06T08:15:15.813Z,10093
2022-09-06T08:16:21.970Z,10033
2022-09-06T08:17:28.053Z,10076
2022-09-06T08:18:33.204Z,10225
2022-09-06T08:19:39.326Z,10399
2022-09-06T08:20:45.444Z,10541
2022-09-06T08:21:51.569Z,10624
2022-09-06T08:22:57.694Z,10727
2022-09-06T08:24:03.820Z,10840
2022-09-06T08:25:09.947Z,11115
2022-09-06T08:26:16.076Z,10477
2022-09-06T08:27:22.189Z,10968
2022-09-06T08:28:28.319Z,10759
2022-09-06T08:29:34.450Z,10848
2022-09-06T08:30:40.569Z,10818
2022-09-06T08:31:46.771Z,10922
2022-09-06T08:32:51.836Z,11056
2022-09-06T08:33:57.968Z,11268
2022-09-06T08:35:04.111Z,11472
2022-09-06T08:36:10.227Z,11853
2022-09-06T08:37:16.359Z,13812
2022-09-06T08:38:22.468Z,7924
2022-09-06T08:39:28.595Z,25170
2022-09-06T08:40:34.729Z,24553
2022-09-06T08:41:40.843Z,32446
2022-09-06T08:42:46.964Z,32712
2022-09-06T08:43:53.087Z,36598
2022-09-06T08:44:59.199Z,27437
2022-09-06T08:46:05.315Z,36204
2022-09-06T08:47:11.413Z,29238
2022-09-06T08:48:17.518Z,14391
2022-09-06T08:49:23.634Z,9430
2022-09-06T08:50:29.713Z,33879
2022-09-06T08:51:35.814Z,428
2022-09-06T08:52:41.888Z,57781
2022-09-06T08:53:47.977Z,45704
2022-09-06T08:54:54.061Z,43419
2022-09-06T08:56:00.138Z,37090
2022-09-06T08:57:06.216Z,15875
2022-09-06T08:58:12.294Z,30093
2022-09-06T08:59:18.355Z,4432
2022-09-06T09:00:24.424Z,36929
2022-09-06T09:01:30.495Z,51257
2022-09-06T09:02:36.582Z,16712
2022-09-06T09:03:42.619Z,7086
2022-09-06T09:04:48.678Z,22921
2022-09-06T09:05:54.733Z,19121
2022-09-06T09:07:00.795Z,3481
2022-09-06T09:08:06.851Z,44331
2022-09-06T09:09:12.899Z,47295
2022-09-06T09:10:18.973Z,50790
2022-09-06T09:11:25.026Z,29635
2022-09-06T09:12:31.074Z,26372
2022-09-06T09:13:37.216Z,20082
2022-09-06T09:14:43.350Z,34862
2022-09-06T09:15:49.540Z,24340
2022-09-06T09:16:55.630Z,21810
2022-09-06T09:18:01.780Z,33318
2022-09-06T09:19:07.915Z,32719
2022-09-06T09:20:14.067Z,28520
2022-09-06T09:21:20.204Z,49182
2022-09-06T09:22:26.338Z,35918
2022-09-06T09:23:32.486Z,26458
2022-09-06T09:24:38.629Z,23749
2022-09-06T09:25:44.772Z,24350
2022-09-06T09:26:50.915Z,26074
2022-09-06T09:27:57.178Z,24581
2022-09-06T09:29:02.414Z,23508
2022-09-06T09:30:08.497Z,23710
2022-09-06T09:31:14.598Z,23173
2022-09-06T09:32:20.631Z,22264
2022-09-06T09:33:26.703Z,21331
2022-09-06T09:34:32.786Z,20399
2022-09-06T09:35:38.866Z,19782
2022-09-06T09:36:44.935Z,19603
2022-09-06T09:37:51.023Z,19261
2022-09-06T09:38:57.099Z,19034
2022-09-06T09:40:03.173Z,19386
2022-09-06T09:41:09.244Z,19776
2022-09-06T09:42:15.325Z,20432
2022-09-06T09:43:21.397Z,20843
2022-09-06T09:44:27.472Z,20195
2022-09-06T09:45:33.553Z,18232
2022-09-06T09:46:39.624Z,19876
2022-09-06T09:47:45.700Z,28742
2022-09-06T09:48:51.775Z,28225
2022-09-06T09:49:57.851Z,23764
2022-09-06T09:51:03.953Z,27676
2022-09-06T09:52:09.973Z,34652
2022-09-06T09:53:16.048Z,29624
2022-09-06T09:54:22.122Z,30783
2022-09-06T09:55:28.198Z,33773
2022-09-06T09:56:34.332Z,38166
2022-09-06T09:57:40.472Z,30527
2022-09-06T09:58:46.612Z,30986
2022-09-06T09:59:52.753Z,35195
2022-09-06T10:00:58.889Z,29776
2022-09-06T10:02:05.020Z,29243
2022-09-06T10:03:11.162Z,30450
2022-09-06T10:04:17.286Z,32708
2022-09-06T10:05:23.413Z,24311
2022-09-06T10:06:29.545Z,30447
2022-09-06T10:07:35.667Z,21587
2022-09-06T10:08:41.836Z,24172
2022-09-06T10:09:47.931Z,29774
2022-09-06T10:10:54.195Z,25000
2022-09-06T10:11:59.400Z,21463
2022-09-06T10:13:05.460Z,23476
2022-09-06T10:14:11.506Z,23462
2022-09-06T10:15:17.568Z,20622
2022-09-06T10:16:23.638Z,23571
2022-09-06T10:17:29.687Z,25528
2022-09-06T10:18:35.754Z,26155
2022-09-06T10:19:41.805Z,25220
2022-09-06T10:20:47.869Z,24928
2022-09-06T10:21:53.933Z,23587
2022-09-06T10:22:59.988Z,22697
2022-09-06T10:24:06.069Z,23622
2022-09-06T10:25:12.118Z,24376
2022-09-06T10:26:18.176Z,25280
2022-09-06T10:27:24.234Z,28841
2022-09-06T10:28:30.298Z,25167
2022-09-06T10:29:36.354Z,27916
2022-09-06T10:30:42.408Z,27552
2022-09-06T10:31:48.466Z,26085
2022-09-06T10:32:54.519Z,25831
2022-09-06T10:34:00.573Z,25834
2022-09-06T10:35:06.629Z,23249
2022-09-06T10:36:12.678Z,21605
2022-09-06T10:37:18.739Z,18690
2022-09-06T10:38:24.784Z,19999
2022-09-06T10:39:30.907Z,20985
2022-09-06T10:40:37.049Z,19288
2022-09-06T10:41:43.184Z,19794
2022-09-06T10:42:49.303Z,26312
2022-09-06T10:43:55.430Z,23826
2022-09-06T10:45:01.577Z,22380
2022-09-06T10:46:07.713Z,22509
2022-09-06T10:47:13.838Z,20811
2022-09-06T10:48:19.961Z,27649
2022-09-06T10:49:26.116Z,20760
2022-09-06T10:50:32.307Z,22708
2022-09-06T10:51:38.363Z,22399
2022-09-06T10:52:44.492Z,24209
2022-09-06T10:53:50.755Z,24329
2022-09-06T10:54:55.962Z,23842
2022-09-06T10:56:02.022Z,22893
2022-09-06T10:57:08.076Z,26783
2022-09-06T10:58:14.130Z,22766
2022-09-06T10:59:20.172Z,20024
2022-09-06T11:00:26.221Z,21312
2022-09-06T11:01:32.273Z,22973
2022-09-06T11:02:38.318Z,21549
2022-09-06T11:03:44.364Z,22226
2022-09-06T11:04:50.430Z,22760
2022-09-06T11:05:56.465Z,21899
2022-09-06T11:07:02.520Z,16767
2022-09-06T11:08:08.574Z,19214
2022-09-06T11:09:14.615Z,20885
2022-09-06T11:10:20.661Z,27408
2022-09-06T11:11:26.709Z,22752
2022-09-06T11:12:32.760Z,12164
2022-09-06T11:13:38.814Z,27142
2022-09-06T11:14:44.876Z,13068
2022-09-06T11:15:50.912Z,20126
2022-09-06T11:16:56.965Z,19413
2022-09-06T11:18:03.029Z,18982
2022-09-06T11:19:09.067Z,18067
2022-09-06T11:20:15.122Z,21892
2022-09-06T11:21:21.171Z,8299
2022-09-06T11:22:27.294Z,21106
2022-09-06T11:23:33.419Z,16887
2022-09-06T11:24:39.552Z,13951
2022-09-06T11:25:45.698Z,14195
2022-09-06T11:26:51.818Z,14658
2022-09-06T11:27:57.965Z,15229
2022-09-06T11:29:04.075Z,14996
2022-09-06T11:30:10.220Z,15832
2022-09-06T11:31:16.346Z,14880
2022-09-06T11:32:22.486Z,18086
2022-09-06T11:33:28.621Z,19811
2022-09-06T11:34:34.742Z,15909
2022-09-06T11:35:40.882Z,14054
2022-09-06T11:36:47.137Z,13256
2022-09-06T11:37:52.352Z,11610
2022-09-06T11:38:58.417Z,12049
2022-09-06T11:40:04.464Z,18175
2022-09-06T11:41:10.522Z,21327
2022-09-06T11:42:16.587Z,15923
2022-09-06T11:43:22.641Z,14840
2022-09-06T11:44:28.708Z,15403
2022-09-06T11:45:34.764Z,14746
2022-09-06T11:46:40.832Z,13190
2022-09-06T11:47:46.864Z,13576
2022-09-06T11:48:52.919Z,15524
2022-09-06T11:49:58.979Z,15059
2022-09-06T11:51:05.045Z,12709
2022-09-06T11:52:11.102Z,12428
2022-09-06T11:53:17.175Z,11243
2022-09-06T11:54:23.233Z,11212
2022-09-06T17:59:20.259Z,119
2022-09-06T18:02:49.237Z,80
2022-09-06T18:03:55.354Z,52
2022-09-06T18:05:00.506Z,31
2022-09-06T18:06:06.640Z,26
2022-09-06T18:07:12.769Z,20
2022-09-06T18:08:18.891Z,15
2022-09-06T18:09:25.016Z,15
2022-09-06T18:10:31.141Z,9
2022-09-06T18:11:37.282Z,4
2022-09-06T18:12:43.410Z,4
2022-09-06T18:13:49.524Z,4
2022-09-06T18:14:54.690Z,4
2022-09-06T18:16:00.815Z,0
2022-09-06T18:17:06.942Z,3
2022-09-06T18:18:12.106Z,3
2022-09-06T18:19:17.250Z,3
2022-09-06T18:20:23.382Z,0
2022-09-06T18:21:29.516Z,0
2022-09-06T18:22:35.639Z,0
2022-09-06T18:23:41.775Z,0
2022-09-06T18:24:47.908Z,0
2022-09-06T18:25:54.038Z,0
2022-09-06T18:27:00.168Z,0
2022-09-06T18:28:06.297Z,0
2022-09-06T18:29:12.445Z,0
2022-09-06T18:30:18.560Z,0
2022-09-06T18:31:24.686Z,0
2022-09-06T18:32:30.811Z,0
2022-09-06T18:33:36.946Z,0
2022-09-06T18:34:43.086Z,0
2022-09-06T18:35:48.217Z,0
2022-09-06T18:36:54.346Z,0
2022-09-06T18:38:00.490Z,0
2022-09-06T18:39:06.618Z,0
2022-09-06T18:40:12.756Z,0
2022-09-06T18:41:18.869Z,0
2022-09-06T18:42:25.020Z,0
2022-09-06T18:43:31.159Z,0
2022-09-06T18:44:37.264Z,0
2022-09-06T18:45:43.487Z,0
2022-09-06T18:46:49.536Z,0
2022-09-06T18:47:55.668Z,0
2022-09-06T18:49:01.797Z,0
2022-09-06T18:50:07.926Z,0
2022-09-06T18:51:14.059Z,0
2022-09-06T18:52:19.201Z,0
2022-09-06T18:53:25.337Z,0
2022-09-06T18:54:31.464Z,0
2022-09-06T18:55:37.629Z,0
2022-09-06T18:56:43.805Z,0
2022-09-06T18:57:49.875Z,0
2022-09-06T18:58:56.031Z,0
2022-09-06T19:00:02.156Z,0
2022-09-06T19:01:08.328Z,0
2022-09-06T19:02:14.504Z,0
2022-09-06T19:03:20.551Z,0
2022-09-06T19:04:26.794Z,0
2022-09-06T19:05:32.913Z,0
2022-09-06T19:06:39.078Z,0
2022-09-06T19:07:45.116Z,0
2022-09-06T19:08:51.248Z,0
2022-09-06T19:09:57.390Z,0
2022-09-06T19:11:02.544Z,0
2022-09-06T19:12:08.676Z,0
2022-09-06T19:13:14.810Z,0
2022-09-06T19:14:20.953Z,0
2022-09-06T19:15:27.099Z,0
2022-09-06T19:16:33.238Z,0
2022-09-06T19:17:39.388Z,0
2022-09-06T19:18:45.520Z,0
2022-09-06T19:19:51.655Z,0
2022-09-06T19:20:57.794Z,0
2022-09-06T19:22:03.923Z,0
2022-09-06T19:23:10.065Z,0
2022-09-06T19:24:16.199Z,0
2022-09-06T19:25:21.353Z,0
2022-09-06T19:26:27.482Z,0
2022-09-06T19:27:33.625Z,0
2022-09-06T19:28:39.758Z,0
2022-09-06T19:29:45.902Z,0
2022-09-06T19:30:52.046Z,0
2022-09-06T19:31:58.189Z,0
2022-09-06T19:33:04.319Z,0
2022-09-06T19:34:10.476Z,0
2022-09-06T19:35:16.623Z,0
2022-09-06T19:36:22.755Z,0
2022-09-06T19:37:28.909Z,0
2022-09-06T19:38:35.045Z,0
2022-09-06T19:39:40.207Z,0
2022-09-06T19:40:46.343Z,0
2022-09-06T19:41:52.486Z,0
2022-09-06T19:42:58.624Z,0
2022-09-06T19:44:04.780Z,0
2022-09-06T19:45:10.917Z,0
2022-09-06T19:46:17.059Z,0
2022-09-06T19:47:23.190Z,0
2022-09-06T19:48:29.342Z,0
2022-09-06T19:49:35.478Z,0
2022-09-06T19:50:41.624Z,0
2022-09-06T19:51:47.766Z,0
2022-09-06T19:52:53.908Z,0
2022-09-06T19:53:59.091Z,0
2022-09-06T19:55:05.207Z,0
2022-09-06T19:56:11.361Z,0
2022-09-06T19:57:17.503Z,0
2022-09-06T19:58:23.629Z,0
2022-09-06T19:59:29.785Z,0
2022-09-06T20:00:35.915Z,0
2022-09-06T20:01:42.058Z,0
2022-09-06T20:02:48.192Z,0
2022-09-06T20:03:54.332Z,0
2022-09-06T20:05:00.478Z,0
2022-09-06T20:06:06.611Z,0
2022-09-06T20:07:12.749Z,0
2022-09-06T20:08:17.927Z,0
2022-09-06T20:09:24.056Z,0
2022-09-06T20:10:30.191Z,0
2022-09-06T20:11:36.322Z,0
2022-09-06T20:12:42.464Z,0
2022-09-06T20:13:48.608Z,0
2022-09-06T20:14:54.740Z,0
2022-09-06T20:16:00.890Z,0
2022-09-06T20:17:07.037Z,0
2022-09-06T20:18:13.190Z,0
2022-09-06T20:19:19.307Z,0
2022-09-06T20:20:25.446Z,0
2022-09-06T20:21:31.592Z,0
2022-09-06T20:22:36.751Z,0
2022-09-06T20:23:42.894Z,0
2022-09-06T20:24:49.028Z,0
2022-09-06T20:25:55.175Z,0
2022-09-06T20:27:01.307Z,0
2022-09-06T20:28:07.451Z,0
2022-09-06T20:29:13.614Z,0
2022-09-06T20:30:19.742Z,0
2022-09-06T20:31:25.935Z,0
2022-09-06T20:32:32.030Z,0
2022-09-06T20:33:38.167Z,0
2022-09-06T20:34:44.314Z,0
2022-09-06T20:35:50.459Z,0
2022-09-06T20:36:55.613Z,0
2022-09-06T20:38:01.757Z,0
2022-09-06T20:39:07.917Z,0
2022-09-06T20:40:14.047Z,0
2022-09-06T20:41:20.184Z,0
2022-09-06T20:42:26.330Z,0
2022-09-06T20:43:32.476Z,0
2022-09-06T20:44:38.619Z,0
2022-09-06T20:45:44.770Z,0
2022-09-06T20:46:50.903Z,0
2022-09-06T20:47:57.058Z,0
2022-09-06T20:49:03.190Z,0
2022-09-06T20:50:09.325Z,0
2022-09-06T20:51:14.487Z,0
2022-09-06T20:52:20.643Z,0
2022-09-06T20:53:26.789Z,0
2022-09-06T20:54:32.932Z,0
2022-09-06T20:55:39.077Z,0
2022-09-06T20:56:45.244Z,0
2022-09-06T20:57:51.396Z,0
2022-09-06T20:58:57.536Z,0
2022-09-06T21:00:03.692Z,0
2022-09-06T21:01:09.866Z,0
2022-09-06T21:02:15.983Z,0
2022-09-06T21:03:22.143Z,0
2022-09-06T21:04:28.293Z,0
2022-09-06T21:05:33.459Z,0
2022-09-06T21:06:39.602Z,0
2022-09-06T21:07:45.748Z,0
2022-09-06T21:08:51.902Z,0
2022-09-06T21:09:58.059Z,0
2022-09-06T21:11:04.189Z,0
2022-09-06T21:12:10.355Z,0
2022-09-06T21:13:16.496Z,0
2022-09-06T21:14:22.635Z,0
2022-09-06T21:15:28.782Z,0
2022-09-06T21:16:34.929Z,0
2022-09-06T21:17:41.084Z,0
2022-09-06T21:18:47.234Z,0
2022-09-06T21:19:52.394Z,0
2022-09-06T21:20:58.532Z,0
2022-09-06T21:22:04.680Z,0
2022-09-06T21:23:10.831Z,0